Time;durP1;ratioP1;P1;durP2;ratioP2;P2;SDS_P1;SDS_P2;PMS_P1;PMS_P2;Temp;Humidity;BMP_temperature;BMP_pressure;BME280_temperature;BME280_humidity;BME280_pressure;Samples;Min_cycle;Max_cycle;Signal;HPM_P1;HPM_P2
2021/09/14 00:00:02;;;;;;;8.93;6.95;;;;;;;18.47;73.63;99220.69;5074630;28;20196;-73
2021/09/14 00:02:28;;;;;;;7.63;6.82;;;;;;;18.40;74.05;99214.13;5074685;28;20308;-72
2021/09/14 00:04:55;;;;;;;9.38;7.03;;;;;;;18.40;73.42;99214.13;5074485;28;20184;-72
2021/09/14 00:07:21;;;;;;;7.22;6.53;;;;;;;18.37;73.33;99209.00;5074287;28;20283;-73
2021/09/14 00:09:49;;;;;;;6.85;6.15;;;;;;;18.28;74.03;99215.31;5074499;28;20195;-73
2021/09/14 00:12:16;;;;;;;8.40;7.60;;;;;;;18.25;74.89;99215.63;5074347;28;20198;-72
2021/09/14 00:14:43;;;;;;;7.22;6.50;;;;;;;18.40;74.10;99222.31;5074200;28;20665;-72
2021/09/14 00:17:09;;;;;;;8.05;7.30;;;;;;;18.27;74.54;99219.94;5074178;28;20547;-72
2021/09/14 00:19:36;;;;;;;7.70;6.95;;;;;;;18.09;75.28;99213.50;5074390;28;20195;-72
2021/09/14 00:22:03;;;;;;;7.10;6.40;;;;;;;17.88;76.54;99209.09;5066074;28;20188;-72
2021/09/14 00:24:30;;;;;;;7.00;6.40;;;;;;;17.97;76.52;99211.94;5074344;28;20651;-73
2021/09/14 00:26:58;;;;;;;9.18;6.63;;;;;;;17.94;76.57;99207.66;5073931;28;20227;-73
2021/09/14 00:29:24;;;;;;;7.88;7.05;;;;;;;17.53;78.75;99206.94;5073765;28;20190;-73
2021/09/14 00:31:51;;;;;;;8.32;7.63;;;;;;;17.32;80.88;99214.38;5073223;28;20286;-73
2021/09/14 00:34:17;;;;;;;9.60;7.07;;;;;;;17.36;80.85;99210.38;5073742;28;20186;-72
2021/09/14 00:36:44;;;;;;;7.60;6.90;;;;;;;17.53;80.02;99209.66;5073995;28;20278;-72
2021/09/14 00:39:11;;;;;;;8.32;7.53;;;;;;;17.55;79.88;99212.22;5073796;28;20199;-72
2021/09/14 00:41:37;;;;;;;8.48;6.50;;;;;;;17.36;81.28;99213.09;5074094;28;20194;-72
2021/09/14 00:44:05;;;;;;;8.45;7.50;;;;;;;17.24;81.98;99210.50;5073754;28;20207;-72
2021/09/14 00:46:32;;;;;;;8.40;7.30;;;;;;;17.10;82.90;99210.91;5073396;28;20234;-72
2021/09/14 00:48:58;;;;;;;8.13;7.20;;;;;;;17.01;83.89;99200.88;5073759;28;20186;-72
2021/09/14 00:51:25;;;;;;;9.23;7.55;;;;;;;17.08;83.89;99202.03;5073370;28;20198;-72
2021/09/14 00:53:52;;;;;;;8.57;7.68;;;;;;;17.12;83.71;99199.88;5073663;28;20655;-73
2021/09/14 00:56:19;;;;;;;8.60;7.70;;;;;;;16.96;84.79;99203.13;5073484;28;20631;-72
2021/09/14 00:58:46;;;;;;;8.23;7.20;;;;;;;16.86;85.59;99201.25;5073913;28;20724;-73
2021/09/14 01:01:14;;;;;;;9.30;7.03;;;;;;;16.75;86.62;99198.59;5073383;28;20280;-73
2021/09/14 01:03:41;;;;;;;11.40;7.72;;;;;;;16.55;88.21;99197.69;5073115;28;20218;-73
2021/09/14 01:06:07;;;;;;;8.40;7.38;;;;;;;16.53;88.72;99202.41;5073533;28;20185;-72
2021/09/14 01:08:34;;;;;;;8.38;7.53;;;;;;;16.61;88.32;99199.84;5073446;28;20575;-73
2021/09/14 01:11:02;;;;;;;9.80;6.93;;;;;;;16.56;88.63;99201.28;5073469;28;20193;-72
2021/09/14 01:13:29;;;;;;;12.77;7.88;;;;;;;16.41;89.60;99196.19;5073058;28;20615;-72
2021/09/14 01:15:56;;;;;;;9.50;8.05;;;;;;;16.38;89.89;99196.47;5065214;28;20204;-72
2021/09/14 01:18:24;;;;;;;8.90;7.05;;;;;;;16.31;90.60;99200.72;5073055;28;20185;-72
2021/09/14 01:20:51;;;;;;;8.65;7.65;;;;;;;16.36;90.71;99203.03;5073223;28;20280;-72
2021/09/14 01:23:18;;;;;;;9.25;8.45;;;;;;;16.41;90.17;99198.06;5072908;28;20299;-72
2021/09/14 01:25:45;;;;;;;8.63;7.72;;;;;;;16.38;90.10;99193.75;5072846;28;20225;-73
2021/09/14 01:28:12;;;;;;;8.57;7.75;;;;;;;16.43;90.14;99198.78;5073138;28;20184;-72
2021/09/14 01:30:38;;;;;;;9.00;8.18;;;;;;;16.35;90.26;99194.03;5072955;28;20566;-73
2021/09/14 01:33:05;;;;;;;12.65;7.78;;;;;;;16.44;89.64;99195.06;5073177;28;20185;-72
2021/09/14 01:35:32;;;;;;;12.70;7.97;;;;;;;16.39;90.42;99187.34;5072930;28;20181;-73
2021/09/14 01:37:59;;;;;;;9.40;7.90;;;;;;;16.40;89.90;99189.03;5072401;28;20287;-73
2021/09/14 01:40:27;;;;;;;9.38;8.48;;;;;;;16.38;90.47;99198.34;5073175;28;20698;-73
2021/09/14 01:42:54;;;;;;;9.05;7.45;;;;;;;16.45;89.95;99202.22;5071396;28;20223;-73
2021/09/14 01:45:22;;;;;;;10.10;8.55;;;;;;;16.51;89.17;99195.38;5072766;28;20692;-72
2021/09/14 01:47:49;;;;;;;10.63;7.10;;;;;;;16.47;89.39;99200.22;5072837;28;20196;-72
2021/09/14 01:50:16;;;;;;;8.48;7.70;;;;;;;16.29;90.55;99196.44;5072546;28;20203;-72
2021/09/14 01:52:43;;;;;;;9.60;8.05;;;;;;;16.15;92.45;99194.94;5072887;28;20607;-72
2021/09/14 01:55:13;;;;;;;9.30;8.05;;;;;;;16.08;92.75;99197.31;5072612;28;20576;-72
2021/09/14 01:57:42;;;;;;;10.77;8.35;;;;;;;16.13;92.66;99197.78;5072579;28;20181;-72
2021/09/14 02:00:14;;;;;;;9.40;7.78;;;;;;;15.99;93.21;99193.56;5072939;28;20184;-72
2021/09/14 02:03:03;;;;;;;9.13;8.35;;;;;;;15.92;94.29;99186.94;5072054;28;20281;-72
2021/09/14 02:08:37;;;;;;;8.75;7.95;;;;;;;15.73;95.45;99184.94;5072056;28;20188;-72
2021/09/14 02:38:51;;;;;;;12.85;8.60;;;;;;;16.22;90.11;99183.38;5072249;28;20233;-73
2021/09/14 02:41:36;;;;;;;8.98;8.15;;;;;;;15.98;92.03;99186.38;5072202;28;20193;-72
2021/09/14 02:44:21;;;;;;;8.88;7.93;;;;;;;15.90;92.87;99191.63;5071740;28;20213;-72
2021/09/14 03:00:29;;;;;;;9.07;8.18;;;;;;;15.84;93.65;99175.88;5075602;28;20263;-72
2021/09/14 03:02:56;;;;;;;10.50;9.10;;;;;;;15.67;94.23;99177.31;5075705;28;20219;-72
2021/09/14 03:05:23;;;;;;;10.45;9.27;;;;;;;15.77;93.78;99182.84;5075299;28;20592;-72
2021/09/14 03:07:50;;;;;;;10.43;9.35;;;;;;;15.86;93.25;99182.03;5075529;28;20224;-72
2021/09/14 03:10:16;;;;;;;9.60;8.70;;;;;;;15.89;92.97;99195.31;5075335;28;20408;-72
2021/09/14 03:12:43;;;;;;;10.85;9.27;;;;;;;15.99;91.95;99196.28;5075219;28;20224;-72
2021/09/14 03:15:10;;;;;;;8.98;8.07;;;;;;;16.11;91.01;99193.47;5075073;28;20271;-72
2021/09/14 03:17:37;;;;;;;9.02;8.23;;;;;;;16.00;90.83;99191.69;5075371;28;20201;-72
2021/09/14 03:20:06;;;;;;;9.80;8.75;;;;;;;15.96;91.66;99193.78;5075213;28;20188;-72
2021/09/14 03:22:33;;;;;;;10.88;9.75;;;;;;;15.93;91.55;99194.06;5075196;28;20191;-73
2021/09/14 03:25:00;;;;;;;10.25;9.20;;;;;;;15.84;92.28;99184.88;5075092;28;20219;-72
2021/09/14 03:27:26;;;;;;;9.18;8.38;;;;;;;15.67;93.49;99188.16;5074505;28;20235;-72
2021/09/14 03:29:53;;;;;;;11.20;8.88;;;;;;;15.57;94.58;99179.94;5075486;28;20610;-72
2021/09/14 03:32:19;;;;;;;13.55;9.40;;;;;;;15.49;95.25;99174.31;5074911;28;20193;-72
2021/09/14 03:34:46;;;;;;;11.02;9.93;;;;;;;15.23;97.89;99177.38;5074430;28;20187;-73
2021/09/14 03:37:14;;;;;;;10.70;9.68;;;;;;;15.14;99.02;99172.72;5075306;28;20203;-72
2021/09/14 03:39:40;;;;;;;11.23;10.15;;;;;;;15.15;99.63;99177.16;5074754;28;20195;-72
2021/09/14 03:42:07;;;;;;;11.30;9.57;;;;;;;15.16;99.83;99170.75;5074825;28;20193;-72
2021/09/14 03:44:34;;;;;;;12.10;9.90;;;;;;;15.30;98.46;99163.28;5074373;28;20216;-73
2021/09/14 03:47:00;;;;;;;10.52;9.57;;;;;;;15.28;98.21;99157.13;5075036;28;20280;-72
2021/09/14 03:49:27;;;;;;;12.55;11.25;;;;;;;15.16;99.07;99159.91;5074713;28;20197;-72
2021/09/14 03:51:53;;;;;;;11.50;10.40;;;;;;;15.38;97.90;99158.09;5074328;28;20665;-72
2021/09/14 03:54:21;;;;;;;11.00;9.93;;;;;;;15.45;96.47;99153.84;5074358;28;20193;-72
2021/09/14 03:56:48;;;;;;;10.80;9.32;;;;;;;15.38;96.92;99148.09;5074476;28;20185;-73
2021/09/14 03:59:17;;;;;;;11.68;10.57;;;;;;;15.41;96.92;99150.53;5074419;28;20197;-73
2021/09/14 04:01:49;;;;;;;11.90;10.75;;;;;;;15.45;95.55;99144.88;5074390;28;20211;-73
2021/09/14 04:04:18;;;;;;;11.85;10.65;;;;;;;15.42;96.33;99138.72;5074367;28;20654;-73
2021/09/14 04:09:42;;;;;;;10.65;9.60;;;;;;;15.67;94.21;99149.28;5032132;28;20285;-73
2021/09/14 04:12:09;;;;;;;12.95;10.93;;;;;;;15.88;91.74;99150.19;5063764;28;20203;-72
2021/09/14 04:14:35;;;;;;;13.65;9.73;;;;;;;15.92;91.18;99145.34;5074412;28;20200;-72
2021/09/14 04:17:02;;;;;;;10.07;9.13;;;;;;;15.77;91.98;99144.84;5073986;28;20227;-72
2021/09/14 04:19:28;;;;;;;10.75;9.75;;;;;;;15.82;91.78;99137.13;5074299;28;20587;-72
2021/09/14 04:21:55;;;;;;;12.30;10.98;;;;;;;15.77;91.79;99137.53;5074194;28;20604;-73
2021/09/14 04:24:22;;;;;;;11.82;10.65;;;;;;;15.80;91.54;99139.13;5074371;28;20228;-72
2021/09/14 04:26:50;;;;;;;12.75;10.77;;;;;;;15.67;92.54;99133.00;5073578;28;20308;-72
2021/09/14 04:29:16;;;;;;;13.77;10.82;;;;;;;15.69;93.09;99134.59;5073649;28;20296;-73
2021/09/14 04:31:43;;;;;;;11.98;10.45;;;;;;;15.57;92.96;99139.22;5073882;28;20189;-73
2021/09/14 04:34:10;;;;;;;13.20;9.98;;;;;;;15.68;92.61;99135.59;5073944;28;20880;-73
2021/09/14 04:36:36;;;;;;;12.02;10.73;;;;;;;15.82;91.61;99135.28;5073583;28;21049;-73
2021/09/14 04:39:03;;;;;;;14.15;11.45;;;;;;;15.64;92.10;99126.00;5073588;28;20663;-72
2021/09/14 04:41:30;;;;;;;14.10;11.57;;;;;;;15.45;93.81;99131.31;5073874;28;20192;-72
2021/09/14 04:43:58;;;;;;;13.35;12.07;;;;;;;15.57;93.78;99139.22;5073834;28;20642;-72
2021/09/14 04:46:24;;;;;;;13.05;11.75;;;;;;;15.48;94.07;99142.72;5073599;28;20185;-72
2021/09/14 04:48:51;;;;;;;12.63;10.63;;;;;;;15.71;91.83;99139.94;5073719;28;20284;-73
2021/09/14 04:51:17;;;;;;;12.57;10.38;;;;;;;15.76;91.22;99135.84;5073252;28;20287;-73
2021/09/14 04:53:44;;;;;;;12.05;10.05;;;;;;;15.60;92.52;99130.84;5073675;28;20304;-73
2021/09/14 04:56:11;;;;;;;14.57;11.95;;;;;;;15.62;92.97;99128.88;5073456;28;20591;-73
2021/09/14 04:58:39;;;;;;;14.20;12.80;;;;;;;15.83;91.98;99137.00;5072746;28;20228;-73
2021/09/14 05:01:08;;;;;;;18.15;16.23;;;;;;;15.85;91.55;99134.16;5073264;28;20194;-73
2021/09/14 05:03:34;;;;;;;14.52;13.00;;;;;;;16.11;89.49;99137.28;5073577;28;20307;-73
2021/09/14 05:06:01;;;;;;;13.15;11.85;;;;;;;16.16;88.62;99131.47;5073712;28;20201;-72
2021/09/14 05:08:28;;;;;;;18.98;13.02;;;;;;;16.05;89.18;99130.56;5073586;28;20280;-73
2021/09/14 05:10:55;;;;;;;14.30;12.80;;;;;;;15.84;91.25;99137.88;5073569;28;21077;-73
2021/09/14 05:13:22;;;;;;;14.13;11.80;;;;;;;15.98;90.33;99134.78;5072172;28;20262;-73
2021/09/14 05:15:48;;;;;;;15.80;12.95;;;;;;;15.94;90.21;99141.50;5073182;28;20181;-73
2021/09/14 05:18:17;;;;;;;15.00;12.45;;;;;;;15.97;90.36;99145.81;5073259;28;20189;-73
2021/09/14 05:20:45;;;;;;;16.40;12.25;;;;;;;15.85;90.25;99145.00;5073141;28;20295;-73
2021/09/14 05:23:13;;;;;;;13.45;11.52;;;;;;;15.60;91.88;99152.56;5072430;28;20189;-73
2021/09/14 05:25:40;;;;;;;20.13;14.32;;;;;;;15.68;92.29;99159.16;5072807;28;20565;-73
2021/09/14 05:28:07;;;;;;;16.38;12.73;;;;;;;15.84;91.52;99156.88;5073147;28;20185;-72
2021/09/14 05:30:34;;;;;;;15.05;13.02;;;;;;;15.86;90.79;99165.75;5073271;28;20270;-73
2021/09/14 05:33:03;;;;;;;13.55;12.25;;;;;;;16.04;90.28;99155.97;5072721;28;20279;-73
2021/09/14 05:35:38;;;;;;;19.75;13.48;;;;;;;16.05;88.70;99152.28;5072712;28;20185;-73
2021/09/14 05:38:05;;;;;;;15.43;12.45;;;;;;;15.91;90.08;99159.91;5072375;28;20263;-74
2021/09/14 05:40:32;;;;;;;16.25;13.18;;;;;;;15.74;90.96;99151.38;5072624;28;20189;-72
2021/09/14 05:42:58;;;;;;;19.67;17.60;;;;;;;15.80;91.71;99153.56;5072859;28;20204;-71
2021/09/14 05:45:25;;;;;;;15.82;13.85;;;;;;;15.98;90.39;99150.22;5072220;28;20276;-72
2021/09/14 05:47:51;;;;;;;13.93;12.52;;;;;;;15.98;90.09;99148.38;5073054;28;20284;-73
2021/09/14 05:50:18;;;;;;;16.60;14.65;;;;;;;16.16;89.20;99156.75;5072487;28;20208;-72
2021/09/14 05:52:46;;;;;;;19.70;13.02;;;;;;;16.19;88.17;99153.78;5072074;28;20272;-74
2021/09/14 05:55:13;;;;;;;15.40;12.13;;;;;;;16.19;88.15;99155.63;5072706;28;20199;-74
2021/09/14 05:57:40;;;;;;;16.52;14.85;;;;;;;16.17;88.21;99149.50;5072348;28;20290;-71
2021/09/14 06:00:08;;;;;;;16.40;12.82;;;;;;;16.18;88.00;99146.63;5072548;28;20181;-74
2021/09/14 06:02:34;;;;;;;15.68;14.07;;;;;;;15.98;89.21;99153.81;5071553;28;20616;-74
2021/09/14 06:05:01;;;;;;;15.25;13.68;;;;;;;16.05;89.24;99159.56;5072565;28;20683;-73
2021/09/14 06:07:27;;;;;;;14.55;12.18;;;;;;;15.96;89.70;99166.66;5071380;28;20196;-73
2021/09/14 06:09:55;;;;;;;14.98;13.50;;;;;;;16.02;90.11;99167.97;5071673;28;20284;-73
2021/09/14 06:12:22;;;;;;;16.75;13.38;;;;;;;16.18;89.10;99159.34;5071495;28;20185;-74
2021/09/14 06:14:49;;;;;;;15.85;13.15;;;;;;;16.41;87.70;99151.84;5071443;28;20654;-74
2021/09/14 06:17:16;;;;;;;16.45;12.57;;;;;;;16.25;87.52;99158.66;5072308;28;20624;-73
2021/09/14 06:19:42;;;;;;;15.18;13.65;;;;;;;16.24;87.66;99161.53;5071672;28;20189;-73
2021/09/14 06:22:10;;;;;;;15.07;13.00;;;;;;;16.26;87.85;99154.97;5072131;28;20284;-74
2021/09/14 06:24:36;;;;;;;14.35;12.82;;;;;;;16.58;86.38;99167.53;5071445;28;20204;-73
2021/09/14 06:27:05;;;;;;;14.35;12.85;;;;;;;16.73;84.67;99170.69;5071358;28;20327;-73
2021/09/14 06:29:31;;;;;;;12.77;11.18;;;;;;;16.90;83.51;99171.94;5073726;28;20197;-74
2021/09/14 06:31:58;;;;;;;18.27;13.88;;;;;;;16.87;83.88;99172.22;5075171;28;20195;-74
2021/09/14 06:34:24;;;;;;;16.33;13.75;;;;;;;16.95;83.64;99177.81;5075439;28;20276;-74
2021/09/14 06:36:51;;;;;;;15.07;13.57;;;;;;;17.13;82.62;99186.13;5075190;28;20281;-74
2021/09/14 06:39:18;;;;;;;16.00;13.10;;;;;;;16.99;82.69;99189.28;5067640;28;20207;-74
2021/09/14 06:41:44;;;;;;;15.57;12.95;;;;;;;17.06;82.52;99193.16;5075833;28;20517;-73
2021/09/14 06:44:12;;;;;;;16.10;12.52;;;;;;;17.11;82.74;99195.44;5075570;28;20273;-74
2021/09/14 06:46:39;;;;;;;13.70;12.25;;;;;;;17.12;82.17;99195.31;5075189;28;20673;-74
2021/09/14 06:49:05;;;;;;;13.60;12.20;;;;;;;16.74;84.91;99191.47;5074826;28;20234;-73
2021/09/14 06:51:32;;;;;;;14.25;12.80;;;;;;;16.83;85.18;99181.66;5075238;28;20230;-73
2021/09/14 06:53:58;;;;;;;13.70;12.30;;;;;;;16.98;84.65;99182.09;5075103;28;20194;-73
2021/09/14 06:56:25;;;;;;;16.27;13.18;;;;;;;16.86;85.06;99184.94;5074949;28;20224;-73
2021/09/14 06:58:52;;;;;;;14.80;13.15;;;;;;;17.07;84.42;99184.84;5075166;28;20195;-73
2021/09/14 07:01:21;;;;;;;13.32;11.98;;;;;;;17.19;83.65;99190.16;5074849;28;20206;-74
2021/09/14 07:03:49;;;;;;;13.60;11.90;;;;;;;17.36;82.73;99191.31;5075089;28;20230;-73
2021/09/14 07:06:16;;;;;;;13.38;12.05;;;;;;;17.43;82.13;99196.03;5074282;28;20682;-73
2021/09/14 07:08:43;;;;;;;13.43;11.55;;;;;;;17.51;81.83;99195.34;5074423;28;20194;-74
2021/09/14 07:11:10;;;;;;;14.30;12.50;;;;;;;17.50;81.86;99199.03;5074371;28;20209;-74
2021/09/14 07:13:36;;;;;;;14.38;12.50;;;;;;;17.63;81.06;99199.63;5074656;28;20689;-74
2021/09/14 07:16:03;;;;;;;13.38;12.07;;;;;;;17.81;80.24;99209.78;5074701;28;20215;-74
2021/09/14 07:18:31;;;;;;;16.38;13.30;;;;;;;17.93;79.31;99205.91;5074207;28;20606;-74
2021/09/14 07:20:58;;;;;;;19.00;11.63;;;;;;;18.04;78.73;99207.63;5074720;28;20283;-73
2021/09/14 07:23:24;;;;;;;13.75;12.30;;;;;;;18.00;78.94;99204.34;5074353;28;20195;-73
2021/09/14 07:25:51;;;;;;;14.30;11.18;;;;;;;18.12;78.41;99213.22;5074638;28;20660;-72
2021/09/14 07:28:18;;;;;;;18.48;12.07;;;;;;;18.20;78.15;99204.28;5074680;28;20600;-72
2021/09/14 07:30:45;;;;;;;12.00;10.23;;;;;;;18.08;78.21;99199.03;5074125;28;20202;-73
2021/09/14 07:33:12;;;;;;;11.80;10.70;;;;;;;17.99;78.82;99199.91;5073964;28;20187;-73
2021/09/14 07:35:40;;;;;;;11.77;10.55;;;;;;;18.15;78.54;99204.75;5074439;28;20199;-73
2021/09/14 07:38:07;;;;;;;11.48;10.27;;;;;;;18.33;78.01;99207.56;5074474;28;20201;-73
2021/09/14 07:40:33;;;;;;;10.70;9.68;;;;;;;18.39;77.17;99209.69;5073109;28;20238;-73
2021/09/14 07:43:00;;;;;;;11.65;10.45;;;;;;;18.46;77.65;99199.06;5074445;28;20204;-73
2021/09/14 07:45:26;;;;;;;12.93;10.98;;;;;;;18.72;76.15;99185.59;5073648;28;20673;-73
2021/09/14 07:47:53;;;;;;;11.95;10.38;;;;;;;19.01;75.13;99179.16;5074493;28;20202;-74
2021/09/14 07:50:21;;;;;;;12.32;10.05;;;;;;;19.26;73.56;99186.56;5074541;28;20184;-73
2021/09/14 07:52:50;;;;;;;11.20;10.20;;;;;;;19.54;72.87;99186.53;5074169;28;20188;-73
2021/09/14 07:55:17;;;;;;;11.90;10.85;;;;;;;19.70;71.55;99189.44;5073976;28;20215;-73
2021/09/14 07:57:43;;;;;;;10.65;9.55;;;;;;;20.06;70.58;99193.94;5073837;28;20185;-72
2021/09/14 08:00:11;;;;;;;11.93;10.73;;;;;;;20.38;69.41;99194.19;5073588;28;20196;-73
2021/09/14 08:02:38;;;;;;;11.20;9.67;;;;;;;20.29;69.08;99192.41;5073778;28;20534;-73
2021/09/14 08:05:07;;;;;;;10.03;8.97;;;;;;;20.52;68.80;99187.25;5073795;28;20513;-73
2021/09/14 08:07:33;;;;;;;11.10;9.13;;;;;;;20.77;67.77;99188.25;5073218;28;20467;-72
2021/09/14 08:10:01;;;;;;;10.57;9.53;;;;;;;20.87;67.46;99188.13;5072730;28;20438;-73
2021/09/14 08:12:28;;;;;;;9.73;8.73;;;;;;;21.15;66.17;99185.13;5073424;28;20457;-72
2021/09/14 08:14:54;;;;;;;11.20;9.90;;;;;;;21.14;66.10;99177.94;5071096;28;20439;-74
2021/09/14 08:17:21;;;;;;;10.87;8.60;;;;;;;21.32;65.77;99177.81;5073142;28;20897;-73
2021/09/14 08:19:48;;;;;;;11.77;9.13;;;;;;;21.72;64.15;99181.66;5073382;28;20438;-72
2021/09/14 08:22:15;;;;;;;10.83;8.87;;;;;;;21.11;65.97;99173.66;5073596;28;20868;-73
2021/09/14 08:24:41;;;;;;;13.57;9.80;;;;;;;21.13;66.59;99171.63;5073373;28;20441;-73
2021/09/14 08:27:09;;;;;;;8.67;7.87;;;;;;;20.95;67.24;99182.69;5072512;28;20472;-72
2021/09/14 08:29:36;;;;;;;8.90;8.00;;;;;;;20.71;69.18;99188.03;5072935;28;20431;-72
2021/09/14 08:32:03;;;;;;;17.80;11.40;;;;;;;21.11;67.75;99187.34;5073208;28;20527;-72
2021/09/14 08:34:29;;;;;;;11.50;9.83;;;;;;;21.40;66.71;99180.56;5072923;28;20461;-72
2021/09/14 08:36:56;;;;;;;10.80;9.80;;;;;;;21.50;66.39;99186.75;5072428;28;20522;-72
2021/09/14 08:39:22;;;;;;;12.33;10.30;;;;;;;21.79;65.63;99177.19;5072964;28;20455;-72
2021/09/14 08:41:50;;;;;;;9.10;8.20;;;;;;;22.01;64.47;99184.72;5072858;28;20439;-72
2021/09/14 08:44:20;;;;;;;10.67;9.57;;;;;;;22.30;64.09;99183.34;5072519;28;20439;-72
2021/09/14 08:46:46;;;;;;;11.47;8.63;;;;;;;22.63;63.01;99183.25;5072893;28;20993;-74
2021/09/14 08:49:14;;;;;;;8.87;8.03;;;;;;;22.89;62.09;99182.97;5073320;28;20488;-73
2021/09/14 08:51:41;;;;;;;9.67;8.70;;;;;;;23.35;60.34;99185.84;5072594;28;20450;-73
2021/09/14 08:54:07;;;;;;;9.20;8.00;;;;;;;23.90;58.35;99179.28;5064395;28;20518;-73
2021/09/14 08:56:34;;;;;;;7.30;6.60;;;;;;;23.97;58.34;99181.28;5072304;28;20467;-72
2021/09/14 08:59:03;;;;;;;7.70;7.10;;;;;;;24.24;57.46;99186.19;5072091;28;20439;-72
2021/09/14 09:01:32;;;;;;;9.97;8.87;;;;;;;24.44;57.17;99186.47;5072570;28;20434;-73
2021/09/14 09:04:00;;;;;;;8.50;7.80;;;;;;;24.50;57.00;99188.50;5072267;28;20426;-73
2021/09/14 09:06:35;;;;;;;9.07;6.63;;;;;;;24.41;57.06;99194.25;5072354;28;20485;-73
2021/09/14 09:09:09;;;;;;;7.90;7.10;;;;;;;24.40;57.35;99200.78;5072731;28;20896;-73
2021/09/14 09:11:36;;;;;;;8.07;7.10;;;;;;;24.30;57.54;99199.16;5072177;28;20515;-73
2021/09/14 09:14:04;;;;;;;8.47;7.77;;;;;;;24.04;58.72;99196.84;5072354;28;20442;-73
2021/09/14 09:16:32;;;;;;;10.50;9.43;;;;;;;23.53;61.13;99200.13;5071937;28;20433;-73
2021/09/14 09:19:01;;;;;;;9.63;8.63;;;;;;;23.61;61.32;99203.88;5072225;28;20446;-73
2021/09/14 09:21:28;;;;;;;8.27;7.47;;;;;;;23.91;60.85;99194.72;5072528;28;20449;-73
2021/09/14 09:23:56;;;;;;;9.60;8.70;;;;;;;24.28;59.63;99194.91;5072493;28;20422;-74
2021/09/14 09:26:30;;;;;;;10.40;8.07;;;;;;;24.63;58.06;99182.34;5072760;28;20490;-73
2021/09/14 09:28:58;;;;;;;9.80;8.50;;;;;;;24.49;58.55;99189.56;5072456;28;20442;-73
2021/09/14 09:31:26;;;;;;;8.40;7.57;;;;;;;24.42;59.02;99184.94;5071726;28;20443;-73
2021/09/14 09:34:02;;;;;;;11.27;8.00;;;;;;;24.91;58.08;99189.91;5072252;28;20475;-73
2021/09/14 09:36:31;;;;;;;11.00;8.00;;;;;;;24.94;58.13;99190.41;5072375;28;20809;-73
2021/09/14 09:38:58;;;;;;;9.53;8.63;;;;;;;25.22;57.33;99188.88;5072597;28;20529;-73
2021/09/14 09:41:26;;;;;;;13.23;9.37;;;;;;;25.71;56.03;99177.94;5072895;28;20507;-72
2021/09/14 09:44:04;;;;;;;10.00;9.00;;;;;;;26.10;54.97;99187.66;5072726;28;21014;-71
2021/09/14 09:46:31;;;;;;;11.53;8.80;;;;;;;26.06;55.33;99179.97;5071942;28;20506;-73
2021/09/14 09:49:01;;;;;;;19.63;11.43;;;;;;;26.01;55.86;99186.09;5071626;28;20517;-72
2021/09/14 09:51:30;;;;;;;12.20;10.30;;;;;;;26.30;55.14;99193.34;5066739;28;20505;-72
2021/09/14 09:53:57;;;;;;;11.50;10.10;;;;;;;26.38;54.99;99190.41;5070909;28;20434;-72
2021/09/14 09:56:24;;;;;;;10.87;9.27;;;;;;;26.67;54.76;99187.66;5071460;28;20423;-72
2021/09/14 09:58:51;;;;;;;10.33;8.87;;;;;;;26.58;55.27;99187.81;5071520;28;20491;-72
2021/09/14 10:01:20;;;;;;;12.50;11.20;;;;;;;27.04;53.96;99181.72;5071813;28;20781;-73
2021/09/14 10:03:55;;;;;;;8.60;7.80;;;;;;;27.27;53.61;99183.28;5070282;28;20529;-73
2021/09/14 10:06:23;;;;;;;8.33;6.27;;;;;;;27.24;53.61;99181.78;5071138;28;20750;-72
2021/09/14 10:08:53;;;;;;;12.50;10.20;;;;;;;27.23;53.19;99184.78;5071994;28;20525;-72
2021/09/14 10:11:28;;;;;;;9.23;8.00;;;;;;;26.40;55.23;99188.31;5071550;28;20431;-72
2021/09/14 10:14:05;;;;;;;7.50;6.70;;;;;;;26.15;56.65;99187.91;5071125;28;20959;-73
2021/09/14 10:16:35;;;;;;;8.73;7.93;;;;;;;25.70;57.97;99186.41;5071885;28;20787;-73
2021/09/14 10:19:13;;;;;;;8.07;7.37;;;;;;;25.84;58.05;99177.19;5071168;28;20500;-73
2021/09/14 10:21:40;;;;;;;11.30;8.60;;;;;;;26.03;57.37;99172.09;5071201;28;20427;-73
2021/09/14 10:24:21;;;;;;;8.60;7.80;;;;;;;26.39;56.60;99174.72;5071242;28;20537;-73
2021/09/14 10:26:49;;;;;;;9.97;6.60;;;;;;;26.44;56.63;99171.34;5071277;28;20813;-73
2021/09/14 10:29:19;;;;;;;7.43;6.73;;;;;;;26.19;57.33;99169.91;5070648;28;20431;-72
2021/09/14 10:31:46;;;;;;;8.13;7.30;;;;;;;26.67;56.09;99171.94;5071528;28;20443;-72
2021/09/14 10:34:15;;;;;;;8.00;7.30;;;;;;;27.06;54.91;99170.44;5071018;28;20431;-72
2021/09/14 10:36:43;;;;;;;11.83;9.70;;;;;;;27.33;53.98;99156.75;5071669;28;20493;-74
2021/09/14 10:39:22;;;;;;;9.47;7.43;;;;;;;27.09;54.18;99161.75;5071280;28;20427;-73
2021/09/14 10:41:52;;;;;;;8.20;7.30;;;;;;;27.12;54.42;99161.31;5071820;28;20441;-73
2021/09/14 10:44:25;;;;;;;9.37;8.40;;;;;;;27.24;54.33;99158.84;5071599;28;20449;-73
2021/09/14 10:47:05;;;;;;;10.90;10.00;;;;;;;27.31;53.94;99154.16;5071844;28;20483;-73
2021/09/14 10:49:43;;;;;;;7.13;6.53;;;;;;;26.84;55.26;99164.16;5072268;28;20486;-73
2021/09/14 10:52:10;;;;;;;8.47;7.77;;;;;;;26.40;56.87;99157.09;5071382;28;20441;-73
2021/09/14 10:54:45;;;;;;;8.10;7.40;;;;;;;26.57;56.66;99163.16;5071673;28;20434;-73
2021/09/14 10:57:12;;;;;;;8.50;7.83;;;;;;;26.86;55.89;99161.19;5070094;28;20434;-73
2021/09/14 10:59:39;;;;;;;8.20;7.50;;;;;;;27.23;54.97;99159.91;5071597;28;20434;-73
2021/09/14 11:02:06;;;;;;;7.73;6.93;;;;;;;26.82;55.30;99158.88;5071448;28;20438;-73
2021/09/14 11:04:32;;;;;;;9.30;8.50;;;;;;;26.95;55.25;99157.19;5071635;28;20455;-73
2021/09/14 11:06:59;;;;;;;9.80;7.70;;;;;;;27.19;54.78;99161.34;5070842;28;20458;-74
2021/09/14 11:09:26;;;;;;;10.83;7.30;;;;;;;27.03;55.13;99157.03;5071392;28;20442;-73
2021/09/14 11:11:55;;;;;;;8.60;7.90;;;;;;;27.14;54.87;99161.13;5071511;28;20438;-74
2021/09/14 11:14:22;;;;;;;8.00;7.30;;;;;;;26.76;56.29;99176.25;5071670;28;20441;-73
2021/09/14 11:16:48;;;;;;;11.43;7.40;;;;;;;27.09;55.45;99161.75;5075144;28;20931;-74
2021/09/14 11:19:24;;;;;;;9.03;8.13;;;;;;;27.46;54.11;99159.53;5075169;28;20940;-72
2021/09/14 11:21:51;;;;;;;7.87;6.97;;;;;;;27.09;54.94;99156.22;5066780;28;20425;-72
2021/09/14 11:24:21;;;;;;;7.87;7.17;;;;;;;27.31;54.69;99159.69;5074825;28;20479;-72
2021/09/14 11:26:47;;;;;;;8.80;7.87;;;;;;;26.91;55.83;99154.03;5074596;28;20490;-74
2021/09/14 11:29:16;;;;;;;11.83;8.43;;;;;;;26.54;57.03;99166.31;5074654;28;20501;-73
2021/09/14 11:31:43;;;;;;;8.87;8.00;;;;;;;25.72;59.65;99165.84;5074714;28;20784;-74
2021/09/14 11:34:10;;;;;;;10.90;8.60;;;;;;;25.86;59.93;99174.25;5075058;28;20806;-74
2021/09/14 11:36:36;;;;;;;9.60;8.10;;;;;;;26.26;58.53;99178.22;5075107;28;20513;-74
2021/09/14 11:39:05;;;;;;;8.90;7.17;;;;;;;26.28;58.19;99172.53;5074547;28;20435;-73
2021/09/14 11:41:33;;;;;;;7.87;7.17;;;;;;;26.37;58.01;99182.34;5074496;28;20437;-73
2021/09/14 11:44:00;;;;;;;8.43;7.50;;;;;;;26.40;57.85;99176.41;5074289;28;20522;-73
2021/09/14 11:46:28;;;;;;;9.70;7.50;;;;;;;26.53;57.75;99178.41;5074294;28;20577;-74
2021/09/14 11:48:57;;;;;;;9.40;7.93;;;;;;;26.98;56.42;99179.75;5074075;28;20431;-73
2021/09/14 11:51:24;;;;;;;9.10;7.80;;;;;;;27.60;54.63;99183.38;5074653;28;20427;-73
2021/09/14 11:53:52;;;;;;;7.97;7.23;;;;;;;27.89;53.51;99178.56;5074858;28;20443;-73
2021/09/14 11:56:20;;;;;;;7.10;6.40;;;;;;;28.18;53.01;99181.97;5074269;28;21962;-73
2021/09/14 11:58:48;;;;;;;7.87;6.80;;;;;;;28.73;51.47;99178.94;5073885;28;20594;-72
2021/09/14 12:01:17;;;;;;;10.30;7.60;;;;;;;29.11;50.43;99176.28;5073998;28;20453;-72
2021/09/14 12:03:48;;;;;;;7.53;6.87;;;;;;;28.61;50.49;99173.22;5074631;28;20912;-72
2021/09/14 12:06:23;;;;;;;8.40;7.57;;;;;;;28.17;52.83;99175.56;5073769;28;20481;-73
2021/09/14 12:08:50;;;;;;;10.90;8.90;;;;;;;28.53;52.45;99174.28;5074225;28;20470;-73
2021/09/14 12:11:24;;;;;;;7.40;6.80;;;;;;;28.81;51.69;99165.72;5074102;28;20467;-73
2021/09/14 12:13:56;;;;;;;8.90;7.73;;;;;;;28.83;51.32;99171.88;5073663;28;20480;-74
2021/09/14 12:16:26;;;;;;;8.53;7.47;;;;;;;28.62;52.31;99169.38;5073824;28;20431;-73